sensor_id;sensor_type;location;lat;lon;timestamp;temperature;humidity
56046;DHT22;41913;51.030;3.706;2024-03-02T00:01:14;18.60;80.30
56046;DHT22;41913;51.030;3.706;2024-03-02T00:03:39;18.60;80.30
56046;DHT22;41913;51.030;3.706;2024-03-02T00:06:07;18.60;80.20
56046;DHT22;41913;51.030;3.706;2024-03-02T00:08:33;18.60;80.20
56046;DHT22;41913;51.030;3.706;2024-03-02T00:10:59;18.60;80.20
56046;DHT22;41913;51.030;3.706;2024-03-02T00:13:26;18.60;80.30
56046;DHT22;41913;51.030;3.706;2024-03-02T00:15:56;18.60;80.60
56046;DHT22;41913;51.030;3.706;2024-03-02T00:20:55;18.60;80.20
56046;DHT22;41913;51.030;3.706;2024-03-02T00:23:23;18.60;80.20
56046;DHT22;41913;51.030;3.706;2024-03-02T00:25:53;18.50;80.20
56046;DHT22;41913;51.030;3.706;2024-03-02T00:30:57;18.50;80.40
56046;DHT22;41913;51.030;3.706;2024-03-02T00:33:27;18.50;80.40
56046;DHT22;41913;51.030;3.706;2024-03-02T00:35:53;18.50;80.40
56046;DHT22;41913;51.030;3.706;2024-03-02T00:38:19;18.50;80.50
56046;DHT22;41913;51.030;3.706;2024-03-02T00:40:46;18.40;80.40
56046;DHT22;41913;51.030;3.706;2024-03-02T00:43:41;18.40;80.50
56046;DHT22;41913;51.030;3.706;2024-03-02T00:46:08;18.50;80.40
56046;DHT22;41913;51.030;3.706;2024-03-02T00:48:34;18.50;80.50
56046;DHT22;41913;51.030;3.706;2024-03-02T00:51:03;18.50;80.60
56046;DHT22;41913;51.030;3.706;2024-03-02T00:53:32;18.40;80.60
56046;DHT22;41913;51.030;3.706;2024-03-02T00:55:59;18.40;80.60
56046;DHT22;41913;51.030;3.706;2024-03-02T00:58:28;18.40;80.60
56046;DHT22;41913;51.030;3.706;2024-03-02T01:00:54;18.40;80.60
56046;DHT22;41913;51.030;3.706;2024-03-02T01:03:19;18.40;80.60
56046;DHT22;41913;51.030;3.706;2024-03-02T01:05:45;18.40;80.60
56046;DHT22;41913;51.030;3.706;2024-03-02T01:08:11;18.40;80.60
56046;DHT22;41913;51.030;3.706;2024-03-02T01:10:37;18.40;80.60
56046;DHT22;41913;51.030;3.706;2024-03-02T01:13:03;18.40;80.60
56046;DHT22;41913;51.030;3.706;2024-03-02T01:15:29;18.40;80.60
56046;DHT22;41913;51.030;3.706;2024-03-02T01:17:55;18.30;80.60
56046;DHT22;41913;51.030;3.706;2024-03-02T01:20:21;18.30;81.10
56046;DHT22;41913;51.030;3.706;2024-03-02T01:22:48;18.30;80.50
56046;DHT22;41913;51.030;3.706;2024-03-02T01:25:14;18.40;80.60
56046;DHT22;41913;51.030;3.706;2024-03-02T01:27:40;18.30;80.60
56046;DHT22;41913;51.030;3.706;2024-03-02T01:30:07;18.30;80.60
56046;DHT22;41913;51.030;3.706;2024-03-02T01:32:33;18.30;80.70
56046;DHT22;41913;51.030;3.706;2024-03-02T01:35:00;18.30;80.70
56046;DHT22;41913;51.030;3.706;2024-03-02T01:37:25;18.30;80.70
56046;DHT22;41913;51.030;3.706;2024-03-02T01:39:51;18.20;80.60
56046;DHT22;41913;51.030;3.706;2024-03-02T01:42:17;18.30;80.70
56046;DHT22;41913;51.030;3.706;2024-03-02T01:44:43;18.30;80.80
56046;DHT22;41913;51.030;3.706;2024-03-02T01:47:09;18.30;80.70
56046;DHT22;41913;51.030;3.706;2024-03-02T01:49:35;18.30;80.70
56046;DHT22;41913;51.030;3.706;2024-03-02T01:52:00;18.30;80.70
56046;DHT22;41913;51.030;3.706;2024-03-02T01:54:26;18.20;80.70
56046;DHT22;41913;51.030;3.706;2024-03-02T01:56:52;18.20;80.70
56046;DHT22;41913;51.030;3.706;2024-03-02T01:59:18;18.20;80.70
56046;DHT22;41913;51.030;3.706;2024-03-02T02:01:44;18.20;80.70
56046;DHT22;41913;51.030;3.706;2024-03-02T02:04:11;18.20;80.70
56046;DHT22;41913;51.030;3.706;2024-03-02T02:06:37;18.20;80.70
56046;DHT22;41913;51.030;3.706;2024-03-02T02:09:03;18.20;80.70
56046;DHT22;41913;51.030;3.706;2024-03-02T02:11:29;18.20;80.70
56046;DHT22;41913;51.030;3.706;2024-03-02T02:13:55;18.20;80.70
56046;DHT22;41913;51.030;3.706;2024-03-02T02:16:21;18.20;80.70
56046;DHT22;41913;51.030;3.706;2024-03-02T02:18:47;18.20;80.80
56046;DHT22;41913;51.030;3.706;2024-03-02T02:21:13;18.10;80.70
56046;DHT22;41913;51.030;3.706;2024-03-02T02:23:38;18.20;80.80
56046;DHT22;41913;51.030;3.706;2024-03-02T02:26:04;18.10;80.80
56046;DHT22;41913;51.030;3.706;2024-03-02T02:28:30;18.10;80.80
56046;DHT22;41913;51.030;3.706;2024-03-02T02:30:56;18.10;80.80
56046;DHT22;41913;51.030;3.706;2024-03-02T02:33:22;18.10;80.70
56046;DHT22;41913;51.030;3.706;2024-03-02T02:35:48;18.10;80.70
56046;DHT22;41913;51.030;3.706;2024-03-02T02:38:14;18.10;80.70
56046;DHT22;41913;51.030;3.706;2024-03-02T02:40:40;18.10;80.80
56046;DHT22;41913;51.030;3.706;2024-03-02T02:43:05;18.10;80.70
56046;DHT22;41913;51.030;3.706;2024-03-02T02:45:32;18.10;80.70
56046;DHT22;41913;51.030;3.706;2024-03-02T02:47:58;18.10;80.70
56046;DHT22;41913;51.030;3.706;2024-03-02T02:50:24;18.10;80.80
56046;DHT22;41913;51.030;3.706;2024-03-02T02:52:50;18.10;80.80
56046;DHT22;41913;51.030;3.706;2024-03-02T02:55:16;18.10;80.80
56046;DHT22;41913;51.030;3.706;2024-03-02T02:57:43;18.10;80.70
56046;DHT22;41913;51.030;3.706;2024-03-02T03:00:11;18.10;80.80
56046;DHT22;41913;51.030;3.706;2024-03-02T03:02:40;18.10;80.70
56046;DHT22;41913;51.030;3.706;2024-03-02T03:05:08;18.10;80.80
56046;DHT22;41913;51.030;3.706;2024-03-02T03:07:34;18.00;80.70
56046;DHT22;41913;51.030;3.706;2024-03-02T03:10:03;18.00;80.70
56046;DHT22;41913;51.030;3.706;2024-03-02T03:12:30;18.00;80.80
56046;DHT22;41913;51.030;3.706;2024-03-02T03:14:57;18.00;80.80
56046;DHT22;41913;51.030;3.706;2024-03-02T03:17:23;18.00;80.70
56046;DHT22;41913;51.030;3.706;2024-03-02T03:19:50;18.00;80.80
56046;DHT22;41913;51.030;3.706;2024-03-02T03:22:16;18.00;80.80
56046;DHT22;41913;51.030;3.706;2024-03-02T03:24:42;18.00;80.80
56046;DHT22;41913;51.030;3.706;2024-03-02T03:27:07;18.00;80.80
56046;DHT22;41913;51.030;3.706;2024-03-02T03:29:33;18.00;80.80
56046;DHT22;41913;51.030;3.706;2024-03-02T03:31:59;18.00;80.80
56046;DHT22;41913;51.030;3.706;2024-03-02T03:34:25;18.00;80.80
56046;DHT22;41913;51.030;3.706;2024-03-02T03:36:52;17.90;80.80
56046;DHT22;41913;51.030;3.706;2024-03-02T03:39:17;18.00;81.40
56046;DHT22;41913;51.030;3.706;2024-03-02T03:41:43;18.00;80.80
56046;DHT22;41913;51.030;3.706;2024-03-02T03:44:09;17.90;80.80
56046;DHT22;41913;51.030;3.706;2024-03-02T03:46:35;17.90;80.80
56046;DHT22;41913;51.030;3.706;2024-03-02T03:49:01;17.90;80.80
56046;DHT22;41913;51.030;3.706;2024-03-02T03:51:26;17.90;80.80
56046;DHT22;41913;51.030;3.706;2024-03-02T03:53:52;17.90;80.80
56046;DHT22;41913;51.030;3.706;2024-03-02T03:56:18;17.90;80.70
56046;DHT22;41913;51.030;3.706;2024-03-02T03:58:44;17.90;80.80
56046;DHT22;41913;51.030;3.706;2024-03-02T04:01:10;17.90;80.80
56046;DHT22;41913;51.030;3.706;2024-03-02T04:03:35;17.90;80.80
56046;DHT22;41913;51.030;3.706;2024-03-02T04:06:01;17.90;80.70
56046;DHT22;41913;51.030;3.706;2024-03-02T04:08:29;17.90;80.80
56046;DHT22;41913;51.030;3.706;2024-03-02T04:10:55;17.90;80.80
56046;DHT22;41913;51.030;3.706;2024-03-02T04:13:20;17.90;80.80
56046;DHT22;41913;51.030;3.706;2024-03-02T04:15:46;17.90;80.80
56046;DHT22;41913;51.030;3.706;2024-03-02T04:18:12;17.80;80.70
56046;DHT22;41913;51.030;3.706;2024-03-02T04:20:38;17.80;80.70
56046;DHT22;41913;51.030;3.706;2024-03-02T04:23:04;17.80;80.70
56046;DHT22;41913;51.030;3.706;2024-03-02T04:25:30;17.80;80.80
56046;DHT22;41913;51.030;3.706;2024-03-02T04:27:56;17.80;80.80
56046;DHT22;41913;51.030;3.706;2024-03-02T04:30:23;17.80;80.80
56046;DHT22;41913;51.030;3.706;2024-03-02T04:32:50;17.80;80.80
56046;DHT22;41913;51.030;3.706;2024-03-02T04:35:16;17.80;80.80
56046;DHT22;41913;51.030;3.706;2024-03-02T04:37:42;17.80;80.80
56046;DHT22;41913;51.030;3.706;2024-03-02T04:40:08;17.80;80.90
56046;DHT22;41913;51.030;3.706;2024-03-02T04:42:36;17.80;80.90
56046;DHT22;41913;51.030;3.706;2024-03-02T04:45:02;17.80;80.90
56046;DHT22;41913;51.030;3.706;2024-03-02T04:47:28;17.80;80.90
56046;DHT22;41913;51.030;3.706;2024-03-02T04:49:54;17.70;81.40
56046;DHT22;41913;51.030;3.706;2024-03-02T04:52:20;17.70;80.80
56046;DHT22;41913;51.030;3.706;2024-03-02T04:54:47;17.70;80.90
56046;DHT22;41913;51.030;3.706;2024-03-02T04:57:31;17.70;80.80
56046;DHT22;41913;51.030;3.706;2024-03-02T04:59:57;17.70;80.90
56046;DHT22;41913;51.030;3.706;2024-03-02T05:02:22;17.70;80.80
56046;DHT22;41913;51.030;3.706;2024-03-02T05:04:48;17.70;80.90
56046;DHT22;41913;51.030;3.706;2024-03-02T05:07:14;17.70;80.90
56046;DHT22;41913;51.030;3.706;2024-03-02T05:09:41;17.70;80.90
56046;DHT22;41913;51.030;3.706;2024-03-02T05:12:07;17.70;80.80
56046;DHT22;41913;51.030;3.706;2024-03-02T05:15:03;17.70;80.80
56046;DHT22;41913;51.030;3.706;2024-03-02T05:17:29;17.70;80.80
56046;DHT22;41913;51.030;3.706;2024-03-02T05:19:55;17.70;80.80
56046;DHT22;41913;51.030;3.706;2024-03-02T05:22:21;17.60;80.80
56046;DHT22;41913;51.030;3.706;2024-03-02T05:24:47;17.60;80.80
56046;DHT22;41913;51.030;3.706;2024-03-02T05:27:12;17.60;80.80
56046;DHT22;41913;51.030;3.706;2024-03-02T05:29:38;17.60;80.80
56046;DHT22;41913;51.030;3.706;2024-03-02T05:32:04;17.60;80.90
56046;DHT22;41913;51.030;3.706;2024-03-02T05:34:30;17.60;80.80
56046;DHT22;41913;51.030;3.706;2024-03-02T05:36:58;17.60;80.80
56046;DHT22;41913;51.030;3.706;2024-03-02T05:39:24;17.60;80.80
56046;DHT22;41913;51.030;3.706;2024-03-02T05:41:50;17.60;80.90
56046;DHT22;41913;51.030;3.706;2024-03-02T05:44:15;17.60;80.80
56046;DHT22;41913;51.030;3.706;2024-03-02T05:46:41;17.60;80.80
56046;DHT22;41913;51.030;3.706;2024-03-02T05:49:08;17.60;80.90
56046;DHT22;41913;51.030;3.706;2024-03-02T05:51:37;17.60;80.80
56046;DHT22;41913;51.030;3.706;2024-03-02T05:54:03;17.60;80.80
56046;DHT22;41913;51.030;3.706;2024-03-02T05:56:30;17.60;80.80
56046;DHT22;41913;51.030;3.706;2024-03-02T05:58:56;17.60;80.80
56046;DHT22;41913;51.030;3.706;2024-03-02T06:01:45;17.60;80.80
56046;DHT22;41913;51.030;3.706;2024-03-02T06:04:16;17.60;80.80
56046;DHT22;41913;51.030;3.706;2024-03-02T06:06:42;17.60;80.80
56046;DHT22;41913;51.030;3.706;2024-03-02T06:09:09;17.70;80.70
56046;DHT22;41913;51.030;3.706;2024-03-02T06:11:38;17.60;80.60
56046;DHT22;41913;51.030;3.706;2024-03-02T06:14:05;17.70;80.60
56046;DHT22;41913;51.030;3.706;2024-03-02T06:16:32;17.70;80.60
56046;DHT22;41913;51.030;3.706;2024-03-02T06:18:58;17.70;80.60
56046;DHT22;41913;51.030;3.706;2024-03-02T06:21:25;17.70;80.60
56046;DHT22;41913;51.030;3.706;2024-03-02T06:23:50;17.70;80.60
56046;DHT22;41913;51.030;3.706;2024-03-02T06:26:17;17.70;80.50
56046;DHT22;41913;51.030;3.706;2024-03-02T06:28:44;17.70;80.50
56046;DHT22;41913;51.030;3.706;2024-03-02T06:31:10;17.70;80.50
56046;DHT22;41913;51.030;3.706;2024-03-02T06:33:36;17.60;80.00
56046;DHT22;41913;51.030;3.706;2024-03-02T06:36:03;17.60;79.90
56046;DHT22;41913;51.030;3.706;2024-03-02T06:38:29;17.60;79.70
56046;DHT22;41913;51.030;3.706;2024-03-02T06:40:58;17.60;79.90
56046;DHT22;41913;51.030;3.706;2024-03-02T06:43:24;17.60;79.70
56046;DHT22;41913;51.030;3.706;2024-03-02T06:45:51;17.60;79.90
56046;DHT22;41913;51.030;3.706;2024-03-02T06:48:17;17.60;79.70
56046;DHT22;41913;51.030;3.706;2024-03-02T06:50:47;17.60;79.50
56046;DHT22;41913;51.030;3.706;2024-03-02T06:53:16;17.60;79.50
56046;DHT22;41913;51.030;3.706;2024-03-02T06:55:46;17.60;79.60
56046;DHT22;41913;51.030;3.706;2024-03-02T06:58:13;17.60;79.80
56046;DHT22;41913;51.030;3.706;2024-03-02T07:00:40;17.60;79.70
56046;DHT22;41913;51.030;3.706;2024-03-02T07:03:06;17.60;79.60
56046;DHT22;41913;51.030;3.706;2024-03-02T07:05:32;17.60;79.30
56046;DHT22;41913;51.030;3.706;2024-03-02T07:07:58;17.60;79.30
56046;DHT22;41913;51.030;3.706;2024-03-02T07:10:24;17.60;79.30
56046;DHT22;41913;51.030;3.706;2024-03-02T07:12:50;17.60;79.00
56046;DHT22;41913;51.030;3.706;2024-03-02T07:15:16;17.70;78.80
56046;DHT22;41913;51.030;3.706;2024-03-02T07:17:54;17.70;78.70
56046;DHT22;41913;51.030;3.706;2024-03-02T07:20:20;17.60;79.00
56046;DHT22;41913;51.030;3.706;2024-03-02T07:22:48;17.60;79.00
56046;DHT22;41913;51.030;3.706;2024-03-02T07:25:14;17.60;79.20
56046;DHT22;41913;51.030;3.706;2024-03-02T07:27:40;17.60;79.00
56046;DHT22;41913;51.030;3.706;2024-03-02T07:30:07;17.60;79.20
56046;DHT22;41913;51.030;3.706;2024-03-02T07:32:33;17.50;78.90
56046;DHT22;41913;51.030;3.706;2024-03-02T07:34:59;17.50;79.00
56046;DHT22;41913;51.030;3.706;2024-03-02T07:37:27;17.50;79.00
56046;DHT22;41913;51.030;3.706;2024-03-02T07:39:53;17.50;79.20
56046;DHT22;41913;51.030;3.706;2024-03-02T07:42:19;17.50;79.10
56046;DHT22;41913;51.030;3.706;2024-03-02T07:44:45;17.60;79.10
56046;DHT22;41913;51.030;3.706;2024-03-02T07:47:11;17.50;78.70
56046;DHT22;41913;51.030;3.706;2024-03-02T07:49:37;17.60;78.80
56046;DHT22;41913;51.030;3.706;2024-03-02T07:52:03;17.50;78.90
56046;DHT22;41913;51.030;3.706;2024-03-02T07:54:29;17.60;78.70
56046;DHT22;41913;51.030;3.706;2024-03-02T07:56:55;17.70;78.60
56046;DHT22;41913;51.030;3.706;2024-03-02T07:59:21;17.70;78.70
56046;DHT22;41913;51.030;3.706;2024-03-02T08:01:49;17.70;78.50
56046;DHT22;41913;51.030;3.706;2024-03-02T08:04:17;17.70;78.70
56046;DHT22;41913;51.030;3.706;2024-03-02T08:06:43;17.70;78.70
56046;DHT22;41913;51.030;3.706;2024-03-02T08:09:09;17.70;79.00
56046;DHT22;41913;51.030;3.706;2024-03-02T08:11:36;17.70;78.90
56046;DHT22;41913;51.030;3.706;2024-03-02T08:14:03;17.70;79.40
56046;DHT22;41913;51.030;3.706;2024-03-02T08:16:29;17.70;79.30
56046;DHT22;41913;51.030;3.706;2024-03-02T08:18:55;17.70;79.60
56046;DHT22;41913;51.030;3.706;2024-03-02T08:21:23;17.70;80.20
56046;DHT22;41913;51.030;3.706;2024-03-02T08:23:49;17.70;80.00
56046;DHT22;41913;51.030;3.706;2024-03-02T08:26:15;17.80;80.50
56046;DHT22;41913;51.030;3.706;2024-03-02T08:28:43;18.00;79.90
56046;DHT22;41913;51.030;3.706;2024-03-02T08:31:10;18.10;79.60
56046;DHT22;41913;51.030;3.706;2024-03-02T08:33:36;18.20;79.30
56046;DHT22;41913;51.030;3.706;2024-03-02T08:36:02;18.30;79.70
56046;DHT22;41913;51.030;3.706;2024-03-02T08:38:28;18.30;79.20
56046;DHT22;41913;51.030;3.706;2024-03-02T08:40:54;18.40;79.70
56046;DHT22;41913;51.030;3.706;2024-03-02T08:43:21;18.50;81.60
56046;DHT22;41913;51.030;3.706;2024-03-02T08:45:49;18.60;81.10
56046;DHT22;41913;51.030;3.706;2024-03-02T08:48:17;18.70;81.30
56046;DHT22;41913;51.030;3.706;2024-03-02T08:50:43;18.80;79.70
56046;DHT22;41913;51.030;3.706;2024-03-02T08:53:09;18.90;80.00
56046;DHT22;41913;51.030;3.706;2024-03-02T08:55:35;18.90;80.00
56046;DHT22;41913;51.030;3.706;2024-03-02T08:58:01;19.00;79.40
56046;DHT22;41913;51.030;3.706;2024-03-02T09:00:27;19.00;79.30
56046;DHT22;41913;51.030;3.706;2024-03-02T09:02:54;19.10;79.20
56046;DHT22;41913;51.030;3.706;2024-03-02T09:05:20;19.10;79.30
56046;DHT22;41913;51.030;3.706;2024-03-02T09:07:46;19.00;79.30
56046;DHT22;41913;51.030;3.706;2024-03-02T09:10:12;19.10;79.60
56046;DHT22;41913;51.030;3.706;2024-03-02T09:12:38;19.20;79.80
56046;DHT22;41913;51.030;3.706;2024-03-02T09:15:05;19.20;80.00
56046;DHT22;41913;51.030;3.706;2024-03-02T09:17:31;19.20;79.90
56046;DHT22;41913;51.030;3.706;2024-03-02T09:19:57;19.30;79.80
56046;DHT22;41913;51.030;3.706;2024-03-02T09:22:23;19.30;79.50
56046;DHT22;41913;51.030;3.706;2024-03-02T09:24:49;19.30;79.90
56046;DHT22;41913;51.030;3.706;2024-03-02T09:27:15;19.30;79.90
56046;DHT22;41913;51.030;3.706;2024-03-02T09:29:41;19.20;80.20
56046;DHT22;41913;51.030;3.706;2024-03-02T09:32:08;19.30;79.80
56046;DHT22;41913;51.030;3.706;2024-03-02T09:34:34;19.30;79.60
56046;DHT22;41913;51.030;3.706;2024-03-02T09:36:59;19.30;79.20
56046;DHT22;41913;51.030;3.706;2024-03-02T09:39:25;19.40;78.80
56046;DHT22;41913;51.030;3.706;2024-03-02T09:41:51;19.40;79.40
56046;DHT22;41913;51.030;3.706;2024-03-02T09:44:17;19.30;79.20
56046;DHT22;41913;51.030;3.706;2024-03-02T09:46:44;19.30;79.40
56046;DHT22;41913;51.030;3.706;2024-03-02T09:49:12;19.40;79.20
56046;DHT22;41913;51.030;3.706;2024-03-02T09:51:39;19.30;79.80
56046;DHT22;41913;51.030;3.706;2024-03-02T09:54:07;19.30;79.80
56046;DHT22;41913;51.030;3.706;2024-03-02T09:56:35;19.30;79.80
56046;DHT22;41913;51.030;3.706;2024-03-02T09:59:01;19.30;80.00
56046;DHT22;41913;51.030;3.706;2024-03-02T10:01:27;19.20;80.10
56046;DHT22;41913;51.030;3.706;2024-03-02T10:03:53;19.30;80.00
56046;DHT22;41913;51.030;3.706;2024-03-02T10:06:24;19.20;79.90
56046;DHT22;41913;51.030;3.706;2024-03-02T10:08:50;19.20;79.80
56046;DHT22;41913;51.030;3.706;2024-03-02T10:11:27;19.20;79.70
56046;DHT22;41913;51.030;3.706;2024-03-02T10:14:09;19.20;79.60
56046;DHT22;41913;51.030;3.706;2024-03-02T10:16:43;19.20;79.60
56046;DHT22;41913;51.030;3.706;2024-03-02T10:21:42;19.20;79.40
56046;DHT22;41913;51.030;3.706;2024-03-02T10:24:08;19.20;79.30
56046;DHT22;41913;51.030;3.706;2024-03-02T10:26:34;19.20;79.50
56046;DHT22;41913;51.030;3.706;2024-03-02T10:29:00;19.10;79.30
56046;DHT22;41913;51.030;3.706;2024-03-02T10:31:26;19.10;79.40
56046;DHT22;41913;51.030;3.706;2024-03-02T10:33:57;19.10;79.20
56046;DHT22;41913;51.030;3.706;2024-03-02T10:36:23;19.10;79.10
56046;DHT22;41913;51.030;3.706;2024-03-02T10:38:52;19.10;79.00
56046;DHT22;41913;51.030;3.706;2024-03-02T10:41:23;19.10;78.90
56046;DHT22;41913;51.030;3.706;2024-03-02T10:43:54;19.00;78.70
56046;DHT22;41913;51.030;3.706;2024-03-02T10:46:38;19.00;78.40
56046;DHT22;41913;51.030;3.706;2024-03-02T10:49:05;19.00;78.20
56046;DHT22;41913;51.030;3.706;2024-03-02T10:51:33;19.00;78.10
56046;DHT22;41913;51.030;3.706;2024-03-02T10:53:59;19.00;78.00
56046;DHT22;41913;51.030;3.706;2024-03-02T10:56:33;19.00;77.90
56046;DHT22;41913;51.030;3.706;2024-03-02T10:59:02;18.90;77.80
56046;DHT22;41913;51.030;3.706;2024-03-02T11:01:32;18.80;77.70
56046;DHT22;41913;51.030;3.706;2024-03-02T11:03:59;18.80;77.70
56046;DHT22;41913;51.030;3.706;2024-03-02T11:06:28;18.80;77.80
56046;DHT22;41913;51.030;3.706;2024-03-02T11:08:58;18.80;77.70
56046;DHT22;41913;51.030;3.706;2024-03-02T11:11:30;18.80;77.70
56046;DHT22;41913;51.030;3.706;2024-03-02T11:14:00;18.70;77.70
56046;DHT22;41913;51.030;3.706;2024-03-02T11:16:30;18.70;77.70
56046;DHT22;41913;51.030;3.706;2024-03-02T11:19:10;18.70;77.70
56046;DHT22;41913;51.030;3.706;2024-03-02T11:21:38;18.70;77.70
56046;DHT22;41913;51.030;3.706;2024-03-02T11:26:52;18.60;77.70
56046;DHT22;41913;51.030;3.706;2024-03-02T11:32:04;18.60;77.80
56046;DHT22;41913;51.030;3.706;2024-03-02T11:34:34;18.60;77.80
56046;DHT22;41913;51.030;3.706;2024-03-02T11:37:04;18.60;77.90
56046;DHT22;41913;51.030;3.706;2024-03-02T11:39:30;18.50;77.90
56046;DHT22;41913;51.030;3.706;2024-03-02T11:41:57;18.50;77.70
56046;DHT22;41913;51.030;3.706;2024-03-02T11:44:27;18.50;77.50
56046;DHT22;41913;51.030;3.706;2024-03-02T11:47:06;18.50;77.50
56046;DHT22;41913;51.030;3.706;2024-03-02T11:52:13;18.40;77.30
56046;DHT22;41913;51.030;3.706;2024-03-02T11:54:42;18.40;77.60
56046;DHT22;41913;51.030;3.706;2024-03-02T11:57:17;18.40;77.40
56046;DHT22;41913;51.030;3.706;2024-03-02T11:59:45;18.40;77.30
56046;DHT22;41913;51.030;3.706;2024-03-02T12:02:21;18.40;77.40
56046;DHT22;41913;51.030;3.706;2024-03-02T12:04:49;18.30;77.30
56046;DHT22;41913;51.030;3.706;2024-03-02T12:07:22;18.40;77.30
56046;DHT22;41913;51.030;3.706;2024-03-02T12:09:49;18.40;77.40
56046;DHT22;41913;51.030;3.706;2024-03-02T12:12:24;18.40;77.80
56046;DHT22;41913;51.030;3.706;2024-03-02T12:14:53;18.50;77.90
56046;DHT22;41913;51.030;3.706;2024-03-02T12:17:21;18.60;77.60
56046;DHT22;41913;51.030;3.706;2024-03-02T12:19:48;18.80;77.10
56046;DHT22;41913;51.030;3.706;2024-03-02T12:22:16;18.90;76.90
56046;DHT22;41913;51.030;3.706;2024-03-02T12:24:42;19.00;77.10
56046;DHT22;41913;51.030;3.706;2024-03-02T12:27:11;19.00;77.60
56046;DHT22;41913;51.030;3.706;2024-03-02T12:29:38;18.90;78.00
56046;DHT22;41913;51.030;3.706;2024-03-02T12:32:05;18.90;78.30
56046;DHT22;41913;51.030;3.706;2024-03-02T12:34:31;18.90;78.50
56046;DHT22;41913;51.030;3.706;2024-03-02T12:36:57;18.90;78.50
56046;DHT22;41913;51.030;3.706;2024-03-02T12:39:23;19.00;78.10
56046;DHT22;41913;51.030;3.706;2024-03-02T12:41:50;19.00;78.00
56046;DHT22;41913;51.030;3.706;2024-03-02T12:44:17;19.10;78.10
56046;DHT22;41913;51.030;3.706;2024-03-02T12:46:43;19.10;78.00
56046;DHT22;41913;51.030;3.706;2024-03-02T12:49:11;19.10;78.10
56046;DHT22;41913;51.030;3.706;2024-03-02T12:51:40;19.20;78.10
56046;DHT22;41913;51.030;3.706;2024-03-02T12:54:10;19.20;78.00
56046;DHT22;41913;51.030;3.706;2024-03-02T12:56:37;19.20;77.80
56046;DHT22;41913;51.030;3.706;2024-03-02T12:59:03;19.20;78.00
56046;DHT22;41913;51.030;3.706;2024-03-02T13:01:30;19.10;78.40
56046;DHT22;41913;51.030;3.706;2024-03-02T13:03:58;19.00;78.60
56046;DHT22;41913;51.030;3.706;2024-03-02T13:06:25;18.90;78.90
56046;DHT22;41913;51.030;3.706;2024-03-02T13:08:53;19.00;79.20
56046;DHT22;41913;51.030;3.706;2024-03-02T13:11:21;19.00;79.50
56046;DHT22;41913;51.030;3.706;2024-03-02T13:13:48;19.00;79.60
56046;DHT22;41913;51.030;3.706;2024-03-02T13:16:14;18.90;79.70
56046;DHT22;41913;51.030;3.706;2024-03-02T13:18:42;18.90;79.70
56046;DHT22;41913;51.030;3.706;2024-03-02T13:21:09;18.90;79.70
56046;DHT22;41913;51.030;3.706;2024-03-02T13:23:35;18.90;80.00
56046;DHT22;41913;51.030;3.706;2024-03-02T13:26:01;18.90;80.00
56046;DHT22;41913;51.030;3.706;2024-03-02T13:28:27;18.90;80.10
56046;DHT22;41913;51.030;3.706;2024-03-02T13:30:53;19.00;80.30
56046;DHT22;41913;51.030;3.706;2024-03-02T13:33:19;19.00;80.00
56046;DHT22;41913;51.030;3.706;2024-03-02T13:35:51;18.90;79.90
56046;DHT22;41913;51.030;3.706;2024-03-02T13:38:18;19.00;80.00
56046;DHT22;41913;51.030;3.706;2024-03-02T13:40:45;19.00;80.10
56046;DHT22;41913;51.030;3.706;2024-03-02T13:43:11;19.00;80.10
56046;DHT22;41913;51.030;3.706;2024-03-02T13:45:39;19.10;80.10
56046;DHT22;41913;51.030;3.706;2024-03-02T13:48:05;19.10;79.90
56046;DHT22;41913;51.030;3.706;2024-03-02T13:50:31;19.20;79.70
56046;DHT22;41913;51.030;3.706;2024-03-02T13:52:57;19.20;80.00
56046;DHT22;41913;51.030;3.706;2024-03-02T13:55:23;19.20;79.90
56046;DHT22;41913;51.030;3.706;2024-03-02T13:57:49;19.20;79.80
56046;DHT22;41913;51.030;3.706;2024-03-02T14:00:16;19.20;79.80
56046;DHT22;41913;51.030;3.706;2024-03-02T14:02:43;19.20;79.70
56046;DHT22;41913;51.030;3.706;2024-03-02T14:05:09;19.20;79.60
56046;DHT22;41913;51.030;3.706;2024-03-02T14:07:39;19.20;79.60
56046;DHT22;41913;51.030;3.706;2024-03-02T14:10:06;19.20;79.50
56046;DHT22;41913;51.030;3.706;2024-03-02T14:12:32;19.20;79.40
56046;DHT22;41913;51.030;3.706;2024-03-02T14:14:58;19.20;79.30
56046;DHT22;41913;51.030;3.706;2024-03-02T14:17:26;19.20;79.20
56046;DHT22;41913;51.030;3.706;2024-03-02T14:19:52;19.20;79.20
56046;DHT22;41913;51.030;3.706;2024-03-02T14:22:19;19.20;79.10
56046;DHT22;41913;51.030;3.706;2024-03-02T14:24:46;19.20;79.10
56046;DHT22;41913;51.030;3.706;2024-03-02T14:27:13;19.20;79.00
56046;DHT22;41913;51.030;3.706;2024-03-02T14:29:40;19.20;79.00
56046;DHT22;41913;51.030;3.706;2024-03-02T14:32:06;19.10;78.90
56046;DHT22;41913;51.030;3.706;2024-03-02T14:34:32;19.10;78.90
56046;DHT22;41913;51.030;3.706;2024-03-02T14:36:59;19.10;79.00
56046;DHT22;41913;51.030;3.706;2024-03-02T14:39:26;19.10;79.00
56046;DHT22;41913;51.030;3.706;2024-03-02T14:41:52;19.10;79.00
56046;DHT22;41913;51.030;3.706;2024-03-02T14:44:19;19.00;79.00
56046;DHT22;41913;51.030;3.706;2024-03-02T14:46:48;19.00;79.00
56046;DHT22;41913;51.030;3.706;2024-03-02T14:49:14;19.00;79.00
56046;DHT22;41913;51.030;3.706;2024-03-02T14:51:40;19.00;79.00
56046;DHT22;41913;51.030;3.706;2024-03-02T14:54:06;19.00;79.00
56046;DHT22;41913;51.030;3.706;2024-03-02T14:56:32;19.00;79.00
56046;DHT22;41913;51.030;3.706;2024-03-02T14:58:57;19.00;79.10
56046;DHT22;41913;51.030;3.706;2024-03-02T15:01:25;19.00;79.10
56046;DHT22;41913;51.030;3.706;2024-03-02T15:03:52;18.90;79.00
56046;DHT22;41913;51.030;3.706;2024-03-02T15:06:18;18.90;79.00
56046;DHT22;41913;51.030;3.706;2024-03-02T15:08:44;18.90;79.00
56046;DHT22;41913;51.030;3.706;2024-03-02T15:11:12;18.90;79.10
56046;DHT22;41913;51.030;3.706;2024-03-02T15:13:38;18.80;79.10
56046;DHT22;41913;51.030;3.706;2024-03-02T15:16:04;18.80;79.10
56046;DHT22;41913;51.030;3.706;2024-03-02T15:18:30;18.80;79.20
56046;DHT22;41913;51.030;3.706;2024-03-02T15:20:56;18.80;79.20
56046;DHT22;41913;51.030;3.706;2024-03-02T15:23:22;18.70;79.10
56046;DHT22;41913;51.030;3.706;2024-03-02T15:25:48;18.70;79.20
56046;DHT22;41913;51.030;3.706;2024-03-02T15:28:14;18.70;79.30
56046;DHT22;41913;51.030;3.706;2024-03-02T15:30:40;18.70;79.30
56046;DHT22;41913;51.030;3.706;2024-03-02T15:33:06;18.70;79.30
56046;DHT22;41913;51.030;3.706;2024-03-02T15:35:32;18.70;79.30
56046;DHT22;41913;51.030;3.706;2024-03-02T15:37:58;18.70;79.40
56046;DHT22;41913;51.030;3.706;2024-03-02T15:40:25;18.70;79.40
56046;DHT22;41913;51.030;3.706;2024-03-02T15:42:50;18.70;79.40
56046;DHT22;41913;51.030;3.706;2024-03-02T15:45:16;18.70;79.50